Time;durP1;ratioP1;P1;durP2;ratioP2;P2;SDS_P1;SDS_P2;PMS_P1;PMS_P2;Temp;Humidity;BMP_temperature;BMP_pressure;BME280_temperature;BME280_humidity;BME280_pressure;Samples;Min_cycle;Max_cycle;Signal;HPM_P1;HPM_P2
2022/07/21 00:02:05;;;;;;;21.00;19.10;;;;;;;20.47;100.00;100226.31;4978698;28;20666;-66
2022/07/21 00:04:31;;;;;;;20.40;18.47;;;;;;;20.45;100.00;100237.88;4972980;28;20835;-67
2022/07/21 00:06:56;;;;;;;22.30;19.97;;;;;;;20.40;100.00;100238.31;4973542;28;20199;-66
2022/07/21 00:09:21;;;;;;;21.87;19.67;;;;;;;20.43;100.00;100230.19;4973478;28;20228;-66
2022/07/21 00:11:47;;;;;;;22.03;19.83;;;;;;;20.45;100.00;100232.66;4962847;28;20739;-67
2022/07/21 00:14:12;;;;;;;21.17;19.10;;;;;;;20.47;100.00;100242.00;4975269;28;20658;-66
2022/07/21 00:16:40;;;;;;;21.53;19.23;;;;;;;20.54;100.00;100249.25;4973205;28;20210;-66
2022/07/21 00:19:06;;;;;;;21.47;18.80;;;;;;;20.53;100.00;100253.66;4972753;28;20685;-66
2022/07/21 00:21:31;;;;;;;20.33;18.03;;;;;;;20.58;100.00;100254.06;4974472;28;20219;-66
2022/07/21 00:23:57;;;;;;;19.43;17.50;;;;;;;20.54;100.00;100255.31;4988163;28;20190;-66
2022/07/21 00:26:22;;;;;;;20.73;18.70;;;;;;;20.60;100.00;100251.28;4972024;28;20564;-66
2022/07/21 00:28:49;;;;;;;18.30;16.47;;;;;;;20.50;100.00;100251.34;4973005;28;20184;-67
2022/07/21 00:31:14;;;;;;;17.60;15.90;;;;;;;20.40;100.00;100261.00;4972376;28;20250;-66
2022/07/21 00:33:40;;;;;;;17.60;16.00;;;;;;;20.49;100.00;100249.69;4979085;28;20227;-65
2022/07/21 00:36:05;;;;;;;18.60;16.80;;;;;;;20.60;100.00;100264.34;4987567;28;20204;-66
2022/07/21 00:38:31;;;;;;;17.33;14.97;;;;;;;20.54;100.00;100252.72;4971557;28;20234;-66
2022/07/21 00:40:56;;;;;;;16.10;14.60;;;;;;;20.54;100.00;100263.16;4961343;28;20216;-66
2022/07/21 00:43:22;;;;;;;16.03;14.60;;;;;;;20.51;100.00;100254.78;4971371;28;20184;-66
2022/07/21 00:45:47;;;;;;;16.90;15.40;;;;;;;20.55;100.00;100251.72;4972900;28;20184;-66
2022/07/21 00:48:12;;;;;;;16.77;15.07;;;;;;;20.53;100.00;100256.28;4973077;28;20195;-66
2022/07/21 00:50:38;;;;;;;16.57;14.97;;;;;;;20.53;100.00;100245.00;4965026;28;20235;-66
2022/07/21 00:53:04;;;;;;;16.07;14.57;;;;;;;20.42;100.00;100240.81;4983327;28;20180;-66
2022/07/21 00:55:29;;;;;;;15.70;14.10;;;;;;;20.38;100.00;100227.19;4973033;28;20303;-66
2022/07/21 00:57:54;;;;;;;15.90;14.50;;;;;;;20.38;100.00;100235.03;4972545;28;20195;-66
2022/07/21 01:00:23;;;;;;;16.00;14.57;;;;;;;20.42;100.00;100241.59;4963994;28;20646;-66
2022/07/21 01:02:49;;;;;;;15.83;14.23;;;;;;;20.41;100.00;100233.91;4985019;28;20189;-66
2022/07/21 01:05:15;;;;;;;21.40;15.67;;;;;;;20.36;100.00;100244.81;4973020;28;20195;-66
2022/07/21 01:07:43;;;;;;;16.37;14.83;;;;;;;20.47;100.00;100247.22;4972589;28;20223;-66
2022/07/21 01:10:10;;;;;;;16.60;15.10;;;;;;;20.57;100.00;100248.97;4961137;28;20192;-66
2022/07/21 01:12:37;;;;;;;17.23;15.63;;;;;;;20.56;100.00;100255.16;4975319;28;20593;-66
2022/07/21 01:15:07;;;;;;;18.23;16.53;;;;;;;20.57;100.00;100267.28;4972684;28;20262;-66
2022/07/21 01:17:33;;;;;;;18.17;16.27;;;;;;;20.45;100.00;100259.63;4975168;28;20200;-66
2022/07/21 01:20:05;;;;;;;18.20;15.60;;;;;;;20.44;100.00;100265.81;4976385;28;20184;-66
2022/07/21 01:22:32;;;;;;;16.00;14.57;;;;;;;20.45;100.00;100269.22;4965511;28;20212;-65
2022/07/21 01:24:57;;;;;;;18.70;16.90;;;;;;;20.57;100.00;100277.72;4976194;28;20191;-66
2022/07/21 01:27:25;;;;;;;17.10;15.50;;;;;;;20.56;100.00;100281.31;4974348;28;20188;-66
2022/07/21 01:29:51;;;;;;;18.77;16.27;;;;;;;20.60;100.00;100280.88;4975561;28;20196;-66
2022/07/21 01:32:16;;;;;;;17.93;16.10;;;;;;;20.61;100.00;100282.50;4966075;28;20286;-66
2022/07/21 01:34:41;;;;;;;18.77;16.97;;;;;;;20.62;100.00;100285.94;4976003;28;20188;-66
2022/07/21 01:37:07;;;;;;;18.27;16.60;;;;;;;20.62;100.00;100289.38;4975713;28;20214;-66
2022/07/21 01:42:16;;;;;;;18.40;16.53;;;;;;;20.55;100.00;100293.53;4981083;28;20242;-66
2022/07/21 01:44:41;;;;;;;18.50;16.97;;;;;;;20.47;100.00;100294.25;4975884;28;20184;-66
2022/07/21 01:47:06;;;;;;;14.23;12.73;;;;;;;20.22;100.00;100282.66;4990696;28;20180;-66
2022/07/21 01:49:31;;;;;;;12.87;11.67;;;;;;;20.12;100.00;100289.72;4975622;28;20188;-67
2022/07/21 01:51:57;;;;;;;11.80;10.73;;;;;;;19.99;100.00;100295.22;4983441;28;20211;-67
2022/07/21 01:54:22;;;;;;;12.23;10.60;;;;;;;19.96;100.00;100292.91;4976171;28;20242;-67
2022/07/21 01:56:48;;;;;;;10.10;9.10;;;;;;;19.84;100.00;100300.03;4975189;28;20279;-67
2022/07/21 01:59:13;;;;;;;12.17;10.00;;;;;;;19.85;100.00;100291.25;4975601;28;20198;-68
2022/07/21 02:01:38;;;;;;;8.90;8.10;;;;;;;19.76;100.00;100298.09;4977228;28;20732;-68
2022/07/21 02:04:05;;;;;;;8.77;7.97;;;;;;;19.76;100.00;100305.09;4970471;28;20201;-68
2022/07/21 02:06:31;;;;;;;10.20;7.50;;;;;;;19.62;100.00;100294.13;4983178;28;20561;-68
2022/07/21 02:08:56;;;;;;;8.47;6.90;;;;;;;19.63;100.00;100303.59;4970456;28;20228;-67
2022/07/21 02:11:22;;;;;;;8.97;6.40;;;;;;;19.62;100.00;100304.56;4955991;28;20239;-67
2022/07/21 02:13:48;;;;;;;7.43;6.73;;;;;;;19.62;100.00;100303.72;4978524;28;20558;-67
2022/07/21 02:16:14;;;;;;;7.20;6.50;;;;;;;19.58;100.00;100303.19;4974718;28;20222;-67
2022/07/21 02:18:40;;;;;;;8.03;7.33;;;;;;;19.54;100.00;100301.00;4975097;28;20631;-67
2022/07/21 02:21:05;;;;;;;7.83;7.13;;;;;;;19.45;100.00;100293.03;4973207;28;20222;-67
2022/07/21 02:23:32;;;;;;;7.23;5.73;;;;;;;19.29;100.00;100292.75;4982356;28;20190;-67
2022/07/21 02:25:57;;;;;;;7.13;5.37;;;;;;;19.25;100.00;100294.81;4973571;28;20177;-67
2022/07/21 02:28:23;;;;;;;6.57;5.97;;;;;;;19.25;100.00;100296.56;4975185;28;20643;-67
2022/07/21 02:30:49;;;;;;;5.77;5.27;;;;;;;19.12;100.00;100307.25;4970636;28;20227;-67
2022/07/21 02:33:15;;;;;;;5.00;4.60;;;;;;;19.15;100.00;100304.38;4983889;28;20192;-67
2022/07/21 02:35:41;;;;;;;5.97;5.37;;;;;;;19.23;100.00;100303.72;4989354;28;20199;-67
2022/07/21 02:38:07;;;;;;;5.63;5.13;;;;;;;19.34;100.00;100314.03;4974919;28;20299;-67
2022/07/21 02:40:32;;;;;;;5.73;5.23;;;;;;;19.38;100.00;100309.38;4968788;28;20738;-67
2022/07/21 02:42:58;;;;;;;5.80;5.00;;;;;;;19.39;100.00;100309.22;4986104;28;20177;-67
2022/07/21 02:45:24;;;;;;;7.20;5.13;;;;;;;19.44;100.00;100311.44;4974661;28;20763;-67
2022/07/21 02:47:59;;;;;;;5.43;4.80;;;;;;;19.40;100.00;100323.06;4974772;28;20192;-67
2022/07/21 02:50:28;;;;;;;7.43;5.40;;;;;;;19.38;100.00;100325.81;4966883;28;20250;-67
2022/07/21 02:52:56;;;;;;;6.47;4.80;;;;;;;19.40;100.00;100323.91;4986079;28;20183;-67
2022/07/21 02:55:21;;;;;;;5.37;4.87;;;;;;;19.40;100.00;100320.47;4974510;28;20180;-66
2022/07/21 02:57:46;;;;;;;7.00;5.83;;;;;;;19.54;100.00;100319.25;4974465;28;20191;-66
2022/07/21 03:00:12;;;;;;;5.83;5.00;;;;;;;19.56;100.00;100318.16;4955855;28;20208;-66
2022/07/21 03:02:37;;;;;;;5.43;5.03;;;;;;;19.49;100.00;100324.88;4988058;28;20275;-67
2022/07/21 03:05:03;;;;;;;6.47;5.43;;;;;;;19.61;100.00;100329.00;4973050;28;20235;-66
2022/07/21 03:07:28;;;;;;;5.77;5.27;;;;;;;19.59;100.00;100324.91;4974031;28;20266;-66
2022/07/21 03:09:54;;;;;;;8.27;5.93;;;;;;;19.56;100.00;100323.38;4973842;28;20180;-66
2022/07/21 03:12:19;;;;;;;5.97;5.47;;;;;;;19.59;100.00;100330.13;4966071;28;20231;-66
2022/07/21 03:14:45;;;;;;;6.60;5.20;;;;;;;19.59;100.00;100322.28;4972793;28;20226;-66
2022/07/21 03:17:10;;;;;;;5.53;5.13;;;;;;;19.56;100.00;100326.00;4978952;28;20230;-66
2022/07/21 03:19:36;;;;;;;6.40;5.80;;;;;;;19.49;100.00;100327.50;4974416;28;20187;-66
2022/07/21 03:22:02;;;;;;;6.50;5.10;;;;;;;19.42;100.00;100326.38;4978901;28;20702;-66
2022/07/21 03:24:29;;;;;;;5.57;5.07;;;;;;;19.35;100.00;100332.13;4974177;28;20187;-66
2022/07/21 03:26:55;;;;;;;6.33;5.67;;;;;;;19.19;100.00;100329.25;4988787;28;20207;-67
2022/07/21 03:29:20;;;;;;;6.33;5.73;;;;;;;19.18;100.00;100338.00;4974389;28;20642;-66
2022/07/21 03:31:45;;;;;;;5.83;5.20;;;;;;;19.08;100.00;100332.78;4957466;28;20254;-66
2022/07/21 03:34:11;;;;;;;5.60;5.10;;;;;;;19.18;100.00;100338.81;4976328;28;20191;-66
2022/07/21 03:36:36;;;;;;;7.27;6.00;;;;;;;19.21;100.00;100337.72;4973697;28;20259;-66
2022/07/21 03:39:02;;;;;;;6.53;4.87;;;;;;;19.21;100.00;100347.34;4973434;28;20188;-66
2022/07/21 03:41:27;;;;;;;6.83;5.73;;;;;;;19.16;100.00;100348.59;4981978;28;20563;-66
2022/07/21 03:43:52;;;;;;;6.63;5.73;;;;;;;19.16;100.00;100342.53;4988710;28;20180;-66
2022/07/21 03:46:17;;;;;;;7.77;5.80;;;;;;;19.22;100.00;100349.81;4973661;28;20180;-66
2022/07/21 03:48:43;;;;;;;6.07;5.57;;;;;;;19.09;100.00;100355.28;4972417;28;20631;-66
2022/07/21 03:51:09;;;;;;;6.40;5.90;;;;;;;19.10;100.00;100366.53;4981647;28;20230;-66
2022/07/21 03:53:34;;;;;;;6.47;5.97;;;;;;;19.23;100.00;100367.13;4988340;28;20643;-66
2022/07/21 03:56:00;;;;;;;6.97;6.17;;;;;;;19.17;100.00;100363.25;4973336;28;20620;-66
2022/07/21 03:58:25;;;;;;;6.57;6.00;;;;;;;19.19;100.00;100366.56;4973743;28;20188;-66
2022/07/21 04:00:50;;;;;;;7.30;6.60;;;;;;;19.25;100.00;100364.38;4969894;28;20238;-66
2022/07/21 04:03:15;;;;;;;7.27;6.57;;;;;;;19.32;100.00;100362.88;4971964;28;20218;-66
2022/07/21 04:05:42;;;;;;;7.67;6.90;;;;;;;19.41;100.00;100364.69;4973834;28;20210;-66
2022/07/21 04:08:09;;;;;;;6.93;6.33;;;;;;;19.42;100.00;100363.72;4972778;28;20231;-66
2022/07/21 04:10:36;;;;;;;7.07;6.30;;;;;;;19.35;100.00;100365.25;4961628;28;20228;-66
2022/07/21 04:13:04;;;;;;;6.97;6.30;;;;;;;19.32;100.00;100370.72;4975960;28;20195;-67
2022/07/21 04:15:29;;;;;;;7.43;6.30;;;;;;;19.27;100.00;100371.09;4973211;28;20191;-66
2022/07/21 04:17:55;;;;;;;7.10;6.40;;;;;;;19.35;100.00;100367.84;4973157;28;20192;-66
2022/07/21 04:20:21;;;;;;;6.83;6.23;;;;;;;19.42;100.00;100371.53;4965423;28;20554;-68
2022/07/21 04:22:48;;;;;;;7.17;6.50;;;;;;;19.55;100.00;100366.09;4985647;28;20230;-66
2022/07/21 04:25:14;;;;;;;7.57;6.63;;;;;;;19.64;100.00;100367.06;4972803;28;20184;-68
2022/07/21 04:27:40;;;;;;;6.93;6.37;;;;;;;19.56;100.00;100365.13;4971619;28;20184;-67
2022/07/21 04:30:09;;;;;;;6.73;6.23;;;;;;;19.60;100.00;100365.69;4963470;28;20215;-67
2022/07/21 04:32:34;;;;;;;6.93;6.33;;;;;;;19.64;100.00;100365.25;4987420;28;20344;-67
2022/07/21 04:35:00;;;;;;;7.23;6.17;;;;;;;19.56;100.00;100372.97;4972601;28;20329;-68
2022/07/21 04:37:26;;;;;;;7.20;6.33;;;;;;;19.64;100.00;100375.69;4959096;28;20569;-67
2022/07/21 04:39:51;;;;;;;6.60;5.87;;;;;;;19.54;100.00;100367.03;4972348;28;20661;-67
2022/07/21 04:42:17;;;;;;;7.30;6.17;;;;;;;19.55;100.00;100371.31;4959561;28;20227;-67
2022/07/21 04:44:42;;;;;;;8.40;6.20;;;;;;;19.58;100.00;100375.44;4963216;28;20168;-67
2022/07/21 04:47:07;;;;;;;7.67;6.53;;;;;;;19.60;100.00;100366.50;4969850;28;20196;-67
2022/07/21 04:49:33;;;;;;;7.37;6.17;;;;;;;19.68;100.00;100368.41;4972146;28;20180;-67
2022/07/21 04:51:58;;;;;;;7.00;6.43;;;;;;;19.79;100.00;100380.53;4980605;28;20227;-68
2022/07/21 04:54:23;;;;;;;6.90;6.30;;;;;;;20.03;100.00;100379.31;4976740;28;20191;-68
2022/07/21 04:56:49;;;;;;;6.87;6.27;;;;;;;20.34;100.00;100384.34;4976492;28;20211;-67
2022/07/21 04:59:14;;;;;;;7.27;6.17;;;;;;;20.47;100.00;100382.28;4991147;28;20188;-67
2022/07/21 05:01:40;;;;;;;7.80;6.83;;;;;;;20.56;100.00;100381.41;4978858;28;20218;-68
2022/07/21 05:04:06;;;;;;;6.73;5.90;;;;;;;20.58;100.00;100382.09;4978704;28;20223;-67
2022/07/21 05:06:32;;;;;;;6.73;6.13;;;;;;;20.87;100.00;100390.84;4976476;28;20588;-67
2022/07/21 05:08:57;;;;;;;6.97;6.10;;;;;;;21.20;100.00;100386.84;4976356;28;20227;-66
2022/07/21 05:11:23;;;;;;;7.57;5.93;;;;;;;21.42;100.00;100401.31;4964207;28;20239;-67
2022/07/21 05:13:49;;;;;;;5.83;5.37;;;;;;;21.42;100.00;100392.63;4979196;28;20227;-66
2022/07/21 05:16:14;;;;;;;6.17;5.57;;;;;;;21.41;100.00;100397.03;4975437;28;20196;-66
2022/07/21 05:18:40;;;;;;;6.37;5.83;;;;;;;21.40;100.00;100399.81;4975809;28;20202;-66
2022/07/21 05:21:05;;;;;;;6.37;5.87;;;;;;;21.22;100.00;100399.75;4974178;28;20333;-67
2022/07/21 05:23:30;;;;;;;6.23;5.67;;;;;;;21.17;100.00;100404.59;4983089;28;20223;-67
2022/07/21 05:25:55;;;;;;;6.87;6.17;;;;;;;20.92;100.00;100399.88;4976016;28;20176;-67
2022/07/21 05:28:21;;;;;;;7.43;6.17;;;;;;;20.98;100.00;100395.06;4974708;28;20184;-67
2022/07/21 05:30:46;;;;;;;6.53;5.93;;;;;;;20.89;100.00;100397.56;4971245;28;20225;-67
2022/07/21 05:33:11;;;;;;;6.73;6.13;;;;;;;20.93;100.00;100398.13;4974475;28;20541;-66
2022/07/21 05:35:37;;;;;;;7.03;6.43;;;;;;;21.08;100.00;100394.03;4975327;28;20180;-66
2022/07/21 05:38:02;;;;;;;7.20;6.37;;;;;;;21.12;100.00;100397.19;4974533;28;20198;-67
2022/07/21 05:40:28;;;;;;;8.57;6.53;;;;;;;21.58;100.00;100399.84;4968797;28;20234;-67
2022/07/21 05:42:53;;;;;;;5.97;5.47;;;;;;;21.76;100.00;100398.06;4986917;28;20523;-67
2022/07/21 05:45:19;;;;;;;7.73;6.50;;;;;;;21.59;99.59;100399.72;4990317;28;20211;-66
2022/07/21 05:47:44;;;;;;;7.00;6.30;;;;;;;22.17;98.28;100409.88;4975493;28;20631;-66
2022/07/21 05:50:11;;;;;;;6.13;5.53;;;;;;;22.69;94.66;100407.28;4966404;28;20948;-67
2022/07/21 05:52:37;;;;;;;6.03;5.53;;;;;;;22.85;91.47;100408.38;4990476;28;20188;-67
2022/07/21 05:55:03;;;;;;;5.87;5.27;;;;;;;23.10;89.18;100421.59;4975540;28;20180;-67
2022/07/21 05:57:29;;;;;;;5.90;5.20;;;;;;;23.28;88.77;100422.34;4990226;28;20266;-67
2022/07/21 05:59:55;;;;;;;6.13;5.53;;;;;;;23.71;84.57;100424.09;4990288;28;20176;-67
2022/07/21 06:02:20;;;;;;;6.27;5.67;;;;;;;23.93;84.84;100427.94;4979967;28;20781;-67
2022/07/21 06:04:45;;;;;;;5.87;5.30;;;;;;;24.18;80.75;100419.03;4974672;28;20291;-67
2022/07/21 06:07:11;;;;;;;5.27;4.73;;;;;;;23.92;78.78;100421.84;4973930;28;20188;-68
2022/07/21 06:09:36;;;;;;;9.63;5.93;;;;;;;23.75;80.82;100418.34;4975287;28;20184;-67
2022/07/21 06:12:02;;;;;;;9.30;5.10;;;;;;;23.77;80.68;100421.63;4966561;28;20546;-67
2022/07/21 06:14:27;;;;;;;6.07;5.47;;;;;;;23.77;80.19;100418.19;4973847;28;20183;-67
2022/07/21 06:16:52;;;;;;;6.80;4.83;;;;;;;23.48;82.04;100411.56;4974865;28;20196;-67
2022/07/21 06:19:18;;;;;;;5.50;5.00;;;;;;;23.21;82.95;100416.91;4973592;28;20207;-67
2022/07/21 06:21:43;;;;;;;11.60;5.27;;;;;;;23.21;83.76;100419.53;4977722;28;20230;-67
2022/07/21 06:24:09;;;;;;;7.33;5.93;;;;;;;22.77;86.25;100417.00;4977639;28;20188;-67
2022/07/21 06:26:34;;;;;;;5.97;5.47;;;;;;;22.78;87.83;100431.75;4974877;28;20549;-67
2022/07/21 06:28:59;;;;;;;6.37;5.83;;;;;;;22.61;89.95;100430.03;4974608;28;20180;-67
2022/07/21 06:31:25;;;;;;;6.77;5.73;;;;;;;22.39;89.41;100429.56;4966794;28;20717;-67
2022/07/21 06:33:51;;;;;;;7.03;5.20;;;;;;;22.88;87.69;100431.66;4979263;28;20767;-67
2022/07/21 06:36:16;;;;;;;6.63;6.03;;;;;;;23.66;83.95;100433.25;4974708;28;20620;-67
2022/07/21 06:38:42;;;;;;;10.80;5.87;;;;;;;24.33;77.60;100434.16;4989683;28;20266;-66
2022/07/21 06:41:07;;;;;;;6.43;5.83;;;;;;;24.74;74.91;100438.56;4972692;28;20274;-66
2022/07/21 06:43:33;;;;;;;5.77;5.20;;;;;;;25.63;67.69;100435.72;4981525;28;20210;-67
2022/07/21 06:45:59;;;;;;;5.53;5.03;;;;;;;26.64;62.35;100450.56;4989234;28;20231;-67
2022/07/21 06:48:25;;;;;;;5.77;5.20;;;;;;;28.49;54.75;100456.47;4974446;28;20187;-67
2022/07/21 06:50:51;;;;;;;6.00;4.47;;;;;;;29.99;45.85;100455.06;4970496;28;20227;-67
2022/07/21 06:53:16;;;;;;;4.93;4.53;;;;;;;31.06;42.69;100461.00;4983507;28;20215;-67
2022/07/21 06:55:42;;;;;;;5.93;4.20;;;;;;;29.14;46.61;100466.84;4989302;28;20580;-67
2022/07/21 06:58:09;;;;;;;5.25;4.75;;;;;;;27.84;51.43;100459.97;4974314;28;20233;-67
2022/07/21 07:00:34;;;;;;;5.70;4.35;;;;;;;27.40;54.59;100458.31;4958805;28;20231;-67
2022/07/21 07:03:00;;;;;;;5.10;4.30;;;;;;;30.06;46.01;100456.69;4985405;28;20188;-67
2022/07/21 07:05:27;;;;;;;6.55;4.22;;;;;;;30.76;43.00;100460.69;4984027;28;20291;-67
2022/07/21 07:07:53;;;;;;;5.82;4.57;;;;;;;31.86;39.85;100472.28;4978203;28;20282;-67
2022/07/21 07:10:18;;;;;;;4.90;4.28;;;;;;;30.73;41.83;100469.91;4962798;28;20184;-67
2022/07/21 07:12:43;;;;;;;6.78;4.50;;;;;;;29.28;45.21;100479.09;4962181;28;20637;-67
2022/07/21 07:15:09;;;;;;;6.25;4.90;;;;;;;28.56;47.98;100473.22;4964803;28;20186;-67
2022/07/21 07:17:34;;;;;;;7.85;5.05;;;;;;;28.18;50.41;100473.53;4987917;28;20204;-67
2022/07/21 07:20:00;;;;;;;5.65;5.15;;;;;;;27.59;54.24;100471.94;4974141;28;20717;-68
2022/07/21 07:22:26;;;;;;;5.53;4.90;;;;;;;27.62;52.48;100472.34;4962871;28;20243;-67
2022/07/21 07:24:51;;;;;;;5.75;4.70;;;;;;;27.36;54.75;100475.50;4972838;28;20227;-67
2022/07/21 07:27:16;;;;;;;7.18;4.82;;;;;;;26.99;55.37;100475.47;4973693;28;20596;-67
2022/07/21 07:29:42;;;;;;;5.13;4.30;;;;;;;26.70;56.98;100478.88;4972530;28;20184;-67
2022/07/21 07:32:07;;;;;;;5.25;4.72;;;;;;;26.44;58.11;100477.47;4959948;28;20300;-67
2022/07/21 07:34:32;;;;;;;4.80;4.10;;;;;;;25.54;61.67;100478.91;4973901;28;20293;-67
2022/07/21 07:36:58;;;;;;;4.80;4.38;;;;;;;26.46;57.08;100477.28;4973674;28;20244;-66
2022/07/21 07:39:23;;;;;;;6.80;4.47;;;;;;;26.68;57.53;100480.88;4971629;28;20655;-67
2022/07/21 07:41:48;;;;;;;6.78;4.00;;;;;;;26.23;58.88;100470.22;4977003;28;20227;-67
2022/07/21 07:44:14;;;;;;;5.07;4.30;;;;;;;26.04;60.79;100467.06;4975318;28;20188;-67
2022/07/21 07:46:39;;;;;;;5.20;4.60;;;;;;;26.30;57.91;100455.34;4973712;28;20188;-67
2022/07/21 07:49:04;;;;;;;5.65;4.50;;;;;;;26.28;59.50;100470.50;4972908;28;20713;-67
2022/07/21 07:51:30;;;;;;;6.40;4.90;;;;;;;26.77;56.62;100486.91;4975105;28;20223;-67
2022/07/21 07:53:55;;;;;;;5.03;4.35;;;;;;;26.65;55.93;100481.25;4977308;28;20184;-67
2022/07/21 07:56:20;;;;;;;5.13;4.22;;;;;;;27.97;51.48;100477.81;4973210;28;20650;-66
2022/07/21 07:58:46;;;;;;;5.40;4.32;;;;;;;27.54;51.42;100481.22;4972874;28;20184;-66
2022/07/21 08:01:11;;;;;;;5.00;4.43;;;;;;;28.37;48.62;100476.53;4971878;28;20235;-66
2022/07/21 08:03:36;;;;;;;5.75;4.38;;;;;;;29.94;44.14;100483.00;4980376;28;20259;-66
2022/07/21 08:06:06;;;;;;;4.43;4.03;;;;;;;32.06;39.64;100481.97;4973448;28;20223;-67
2022/07/21 08:08:32;;;;;;;4.40;4.00;;;;;;;32.73;36.44;100487.50;4973441;28;20248;-67
2022/07/21 08:10:57;;;;;;;4.88;4.00;;;;;;;31.51;38.61;100486.78;4961826;28;20236;-67
2022/07/21 08:13:22;;;;;;;4.32;3.92;;;;;;;30.58;40.43;100479.94;4975941;28;20270;-66
2022/07/21 08:15:48;;;;;;;9.23;4.82;;;;;;;29.19;43.53;100490.91;4979481;28;20203;-67
2022/07/21 08:18:14;;;;;;;5.03;4.50;;;;;;;28.05;47.63;100482.16;4978964;28;20579;-66
2022/07/21 08:20:40;;;;;;;5.13;4.70;;;;;;;27.62;51.39;100484.75;4980617;28;20370;-66
2022/07/21 08:23:07;;;;;;;5.10;4.32;;;;;;;26.93;55.47;100483.28;4983524;28;20274;-66
2022/07/21 08:25:32;;;;;;;6.38;4.38;;;;;;;27.88;51.41;100472.84;4990801;28;20722;-66
2022/07/21 08:27:58;;;;;;;6.35;4.30;;;;;;;27.39;52.64;100475.94;4976691;28;20285;-67
2022/07/21 08:30:24;;;;;;;7.45;4.47;;;;;;;27.44;53.53;100466.66;4969122;28;20321;-66
2022/07/21 08:32:49;;;;;;;5.18;4.15;;;;;;;30.04;44.74;100455.25;4989284;28;20305;-66
2022/07/21 08:35:14;;;;;;;5.72;3.65;;;;;;;31.21;39.66;100465.28;4977092;28;20187;-66
2022/07/21 08:37:40;;;;;;;5.20;3.60;;;;;;;32.82;36.26;100453.41;4977019;28;20591;-66
2022/07/21 08:40:08;;;;;;;3.90;3.50;;;;;;;35.58;31.96;100466.44;4982691;28;20218;-67
2022/07/21 08:42:34;;;;;;;4.32;3.17;;;;;;;35.83;29.92;100481.28;4975595;28;20189;-67
2022/07/21 08:44:59;;;;;;;4.10;3.70;;;;;;;34.81;31.44;100473.78;4976835;28;20176;-67
2022/07/21 08:47:25;;;;;;;6.22;3.63;;;;;;;33.90;33.31;100472.31;4976502;28;20643;-67
2022/07/21 08:49:51;;;;;;;4.35;3.60;;;;;;;34.36;31.96;100469.91;4976096;28;20333;-66
2022/07/21 08:52:18;;;;;;;3.33;3.13;;;;;;;33.23;32.61;100464.38;4969425;28;20236;-66
2022/07/21 08:54:44;;;;;;;3.85;3.47;;;;;;;32.17;36.29;100467.94;4975899;28;20184;-66
2022/07/21 08:57:09;;;;;;;3.88;3.47;;;;;;;33.20;34.47;100475.50;4976621;28;20211;-66
2022/07/21 08:59:34;;;;;;;3.20;2.90;;;;;;;34.28;32.70;100467.56;4976440;28;20191;-66
2022/07/21 09:02:00;;;;;;;4.30;3.17;;;;;;;35.41;30.50;100458.38;4981737;28;20231;-66
2022/07/21 09:04:33;;;;;;;4.60;3.42;;;;;;;37.03;28.50;100461.28;4976829;28;20749;-67
2022/07/21 09:07:02;;;;;;;5.40;3.40;;;;;;;35.31;30.53;100452.84;4976623;28;20195;-67
2022/07/21 09:09:28;;;;;;;6.68;2.85;;;;;;;33.68;33.15;100453.31;4975627;28;20274;-67
2022/07/21 09:11:54;;;;;;;3.35;2.88;;;;;;;33.73;32.01;100450.78;4966631;28;20586;-67
2022/07/21 09:14:30;;;;;;;4.20;3.15;;;;;;;33.72;32.34;100438.47;4977102;28;20181;-66
2022/07/21 09:16:57;;;;;;;4.30;3.40;;;;;;;34.27;31.54;100441.91;4976021;28;20242;-67
2022/07/21 09:19:27;;;;;;;3.60;3.30;;;;;;;34.59;30.28;100436.19;4976381;28;20188;-66
2022/07/21 09:21:55;;;;;;;4.88;3.13;;;;;;;34.22;30.20;100444.47;4980041;28;20227;-67
2022/07/21 09:24:26;;;;;;;5.07;3.05;;;;;;;33.53;31.33;100445.75;4990694;28;20184;-67
2022/07/21 09:27:08;;;;;;;3.78;2.80;;;;;;;33.01;32.21;100451.56;4976358;28;20561;-66
2022/07/21 09:29:43;;;;;;;3.35;2.50;;;;;;;35.34;30.51;100439.81;4974907;28;20187;-66
2022/07/21 09:32:32;;;;;;;3.17;2.70;;;;;;;37.58;26.20;100453.25;4980992;28;20226;-67
2022/07/21 09:35:03;;;;;;;2.30;2.10;;;;;;;38.19;24.85;100442.13;4976008;28;20717;-67
2022/07/21 09:37:29;;;;;;;4.05;2.22;;;;;;;36.91;25.72;100448.00;4974961;28;20709;-67
2022/07/21 09:40:00;;;;;;;3.15;2.10;;;;;;;38.23;24.07;100451.31;4974732;28;20187;-67
2022/07/21 09:42:35;;;;;;;3.00;2.20;;;;;;;38.16;24.60;100450.72;4965177;28;20686;-67
2022/07/21 09:45:09;;;;;;;2.22;2.03;;;;;;;37.75;24.14;100453.91;4990327;28;20179;-67
2022/07/21 09:47:38;;;;;;;3.28;2.10;;;;;;;37.24;24.95;100448.06;4975291;28;20195;-67
2022/07/21 09:50:06;;;;;;;5.30;2.22;;;;;;;36.33;27.32;100452.88;4965532;28;20542;-67
2022/07/21 09:52:33;;;;;;;5.13;2.60;;;;;;;37.80;23.55;100450.47;4989869;28;20211;-67
2022/07/21 09:55:04;;;;;;;2.67;2.15;;;;;;;37.30;25.20;100455.94;4975611;28;20263;-67
2022/07/21 09:57:30;;;;;;;2.85;2.33;;;;;;;37.45;24.43;100451.81;4974105;28;20204;-68
2022/07/21 09:59:56;;;;;;;3.38;2.58;;;;;;;38.28;24.92;100453.22;4975432;28;20528;-67
2022/07/21 10:02:27;;;;;;;2.78;2.33;;;;;;;37.29;24.77;100446.25;4981104;28;20227;-67
2022/07/21 10:05:10;;;;;;;2.95;2.42;;;;;;;35.59;27.08;100437.81;4975401;28;20200;-66
2022/07/21 10:07:39;;;;;;;4.20;2.25;;;;;;;34.02;28.37;100450.94;4975220;28;20228;-66
2022/07/21 10:10:05;;;;;;;2.22;2.03;;;;;;;34.35;28.41;100436.25;4963227;28;20188;-66
2022/07/21 10:12:30;;;;;;;2.33;2.13;;;;;;;33.98;29.07;100438.31;4977834;28;20217;-66
2022/07/21 10:14:56;;;;;;;3.80;2.80;;;;;;;33.25;30.56;100435.66;4975355;28;20215;-66
2022/07/21 10:17:23;;;;;;;2.67;2.47;;;;;;;33.01;30.50;100430.25;4973892;28;20674;-66
2022/07/21 10:20:12;;;;;;;4.78;3.40;;;;;;;34.50;28.13;100437.63;4990085;28;20184;-66
2022/07/21 10:23:06;;;;;;;2.92;2.40;;;;;;;35.76;26.72;100433.28;4964194;28;20258;-66
2022/07/21 10:25:32;;;;;;;6.25;2.33;;;;;;;35.86;26.79;100433.47;4975106;28;20659;-66
2022/07/21 10:28:09;;;;;;;2.90;2.58;;;;;;;36.97;24.66;100438.97;4975262;28;20188;-67
2022/07/21 10:30:43;;;;;;;5.50;1.83;;;;;;;36.94;24.87;100428.75;4968356;28;20226;-66
2022/07/21 10:33:09;;;;;;;2.22;2.00;;;;;;;35.05;26.08;100420.28;4984711;28;20650;-66
2022/07/21 10:35:34;;;;;;;3.38;2.20;;;;;;;35.31;26.66;100423.44;4974321;28;20180;-66
2022/07/21 10:38:02;;;;;;;3.97;2.40;;;;;;;33.47;28.65;100414.66;4975215;28;20649;-66
2022/07/21 10:40:28;;;;;;;2.92;2.40;;;;;;;32.55;30.41;100412.94;4965875;28;20724;-66
2022/07/21 10:42:59;;;;;;;2.63;2.40;;;;;;;31.96;31.88;100407.97;4986215;28;20176;-66
2022/07/21 10:45:36;;;;;;;3.63;2.05;;;;;;;32.06;31.26;100404.81;4974806;28;20215;-66
2022/07/21 10:48:04;;;;;;;3.95;2.10;;;;;;;34.02;28.95;100410.13;4970050;28;20541;-66
2022/07/21 10:50:33;;;;;;;2.75;2.20;;;;;;;34.08;28.66;100406.53;4966405;28;20604;-66
2022/07/21 10:53:13;;;;;;;7.40;2.30;;;;;;;34.81;28.97;100425.69;4985632;28;20267;-66
2022/07/21 10:55:46;;;;;;;3.22;1.80;;;;;;;33.05;29.56;100415.44;4974534;28;20231;-67
2022/07/21 10:58:16;;;;;;;2.90;2.20;;;;;;;31.52;32.34;100408.66;4988110;28;20184;-66
2022/07/21 11:01:03;;;;;;;5.97;2.55;;;;;;;30.68;33.00;100410.50;4959719;28;20238;-66
2022/07/21 11:03:34;;;;;;;2.70;2.05;;;;;;;30.14;34.57;100402.59;4965626;28;20219;-65
2022/07/21 11:06:13;;;;;;;3.65;2.22;;;;;;;29.26;35.32;100399.03;4968453;28;20196;-66
2022/07/21 11:08:40;;;;;;;5.03;2.47;;;;;;;28.72;36.65;100392.72;4973800;28;20227;-66
2022/07/21 11:11:09;;;;;;;4.55;2.28;;;;;;;29.06;36.35;100393.69;4962409;28;20675;-66
2022/07/21 11:14:07;;;;;;;3.67;3.00;;;;;;;29.28;36.64;100398.81;4977199;28;20188;-66
2022/07/21 11:16:41;;;;;;;3.50;2.70;;;;;;;29.67;36.90;100397.31;4975606;28;20314;-66
2022/07/21 11:19:29;;;;;;;3.47;2.92;;;;;;;29.97;34.69;100390.78;4963244;28;20181;-67
2022/07/21 11:21:56;;;;;;;2.83;2.60;;;;;;;29.92;35.97;100396.72;4965886;28;20223;-67